Terminal Aerodrome Forecast
Issued by NWS Charleston, WV

Current Version | Previous Version | Graphics & Text | Print | Product List | Glossary On
Versions: 1 2 3 4 5 6 7 8 9 10 11 12 13 14 15 16 17 18 19
000
FTUS41 KRLX 251500 AAA
TAFEKN
TAF AMD
KEKN 251535Z 2516/2612 27013G20KT P6SM -SHRA OVC025
     FM252300 27010G15KT P6SM BKN035
     FM260200 26006KT P6SM BKN040
     FM260500 00000KT P6SM SCT040
     FM260800 00000KT 6SM BR SCT250=

USA.gov is the U.S. government's official web portal to all federal, state and local government web resources and services.